Luminous Kobe-2 — JJ3868 — position and weather

sailwx.info

Track history (hours):
 
Tides and Currents Weather Stations Pressure Air Temp Water Temp Dewpoint Dewpoint Depression Visibility Wind Speed Wind Dir Waves Ship Positions

Luminous Kobe-2

Last reported at 2014-Aug-23 03:33 UTC. Time now 2014-Aug-23 05:36 UTC.
Position N 34°38' E 135°13'.

Length 105 m; draft 4.5 m.

Type: Passenger vessel. MMSI: 431000469.

Date/timePositionNaut miles runAvg speedWind from/ knotsBaromVisibWave heightAir tempDewpointWater temp
2014-Aug-23 03:33N 34°38' E 135°13'3 3.4
2014-Aug-23 02:33N 34°41' E 135°11'0 0.0
2014-Aug-23 01:27N 34°41' E 135°11'0 0.0
2014-Aug-23 00:27N 34°41' E 135°11'0 0.0
2014-Aug-22 23:27N 34°41' E 135°11'0 0.0
2014-Aug-22 22:33N 34°41' E 135°11'0 0.0
2014-Aug-22 21:33N 34°41' E 135°11'0 0.0
2014-Aug-22 20:33N 34°41' E 135°11'0 0.0
2014-Aug-22 19:33N 34°41' E 135°11'0 0.0
2014-Aug-22 18:33N 34°41' E 135°11'0 0.0
2014-Aug-22 17:33N 34°41' E 135°11'0 0.0
2014-Aug-22 16:33N 34°41' E 135°11'0 0.0
2014-Aug-22 15:33N 34°41' E 135°11'0 0.0
2014-Aug-22 14:33N 34°41' E 135°11'0 0.0
2014-Aug-22 13:27N 34°41' E 135°11'0 0.0
2014-Aug-22 12:33N 34°41' E 135°11'7 7.3
2014-Aug-22 11:33N 34°35' E 135°06'2 1.7
2014-Aug-22 10:33N 34°37' E 135°06'6 5.3
2014-Aug-22 09:29N 34°41' E 135°11'5 5.8
2014-Aug-22 08:33N 34°37' E 135°07'5 5.0
2014-Aug-22 07:30N 34°41' E 135°11'0 0.0
2014-Aug-22 06:30N 34°41' E 135°11'0 0.0
2014-Aug-22 05:30N 34°41' E 135°11'2 2.4
2014-Aug-22 04:33N 34°39' E 135°11'1 1.3
2014-Aug-22 03:33N 34°37' E 135°12'3 3.4
2014-Aug-22 02:33N 34°41' E 135°11'0 0.0
2014-Aug-22 01:33N 34°41' E 135°11'0 0.0
2014-Aug-22 00:33N 34°41' E 135°11'0 0.0
2014-Aug-21 23:27N 34°41' E 135°11'0 0.0
2014-Aug-21 22:33N 34°41' E 135°11'0 0.0
2014-Aug-21 21:33N 34°41' E 135°11'0 0.0
2014-Aug-21 20:27N 34°41' E 135°11'0 0.0
2014-Aug-21 19:33N 34°41' E 135°11'0 0.0
2014-Aug-21 18:33N 34°41' E 135°11'0 0.0
2014-Aug-21 17:33N 34°41' E 135°11'0 0.0
2014-Aug-21 16:21N 34°41' E 135°11'0 0.0
2014-Aug-21 15:33N 34°41' E 135°11'0 0.0
2014-Aug-21 14:33N 34°41' E 135°11'0 0.0
2014-Aug-21 13:33N 34°41' E 135°11'0 0.0
2014-Aug-21 12:33N 34°41' E 135°11'8 7.8
2014-Aug-21 11:33N 34°35' E 135°05'2 2.5
2014-Aug-21 10:34N 34°37' E 135°07'5 4.5
2014-Aug-21 09:22N 34°41' E 135°11'0 0.0
2014-Aug-21 08:33N 34°41' E 135°11'5 5.2
2014-Aug-21 07:33N 34°36' E 135°08'5 4.8
2014-Aug-21 06:29N 34°41' E 135°11'0 0.0
2014-Aug-21 05:29N 34°41' E 135°11'2 2.2
2014-Aug-21 04:33N 34°39' E 135°11'2 2.2
2014-Aug-21 03:33N 34°37' E 135°13'4 3.6
2014-Aug-21 02:30N 34°41' E 135°11'0 0.0
2014-Aug-21 01:30N 34°41' E 135°11'0 0.0
2014-Aug-21 00:30N 34°41' E 135°11'0 0.0
2014-Aug-20 23:30N 34°41' E 135°11'0 0.0
2014-Aug-20 22:30N 34°41' E 135°11'0 0.0
2014-Aug-20 21:30N 34°41' E 135°11'0 0.0
2014-Aug-20 20:24N 34°41' E 135°11'0 0.0
2014-Aug-20 19:30N 34°41' E 135°11'0 0.0
2014-Aug-20 18:30N 34°41' E 135°11'0 0.0
2014-Aug-20 17:30N 34°41' E 135°11'0 0.0
2014-Aug-20 16:30N 34°41' E 135°11'0 0.0
2014-Aug-20 15:30N 34°41' E 135°11'0 0.0
2014-Aug-20 14:30N 34°41' E 135°11'0 0.0
2014-Aug-20 13:30N 34°41' E 135°11'0 0.0
2014-Aug-20 12:24N 34°41' E 135°11'6 7.1
2014-Aug-20 11:33N 34°36' E 135°07'1 1.1
2014-Aug-20 10:33N 34°37' E 135°07'5 5.1
2014-Aug-20 09:31N 34°41' E 135°11'6 5.8
2014-Aug-20 08:33N 34°37' E 135°07'6 4.8
2014-Aug-20 07:25N 34°41' E 135°11'0 0.0
2014-Aug-20 06:31N 34°41' E 135°11'0 0.0
2014-Aug-20 05:31N 34°41' E 135°11'2 2.3
2014-Aug-20 04:33N 34°39' E 135°11'2 2.4
2014-Aug-20 03:33N 34°37' E 135°13'4 4.2
2014-Aug-20 02:33N 34°41' E 135°11'0 0.0
2014-Aug-20 01:27N 34°41' E 135°11'0 0.0
2014-Aug-20 00:33N 34°41' E 135°11'0 0.0
2014-Aug-19 23:21N 34°41' E 135°11'0 0.0
2014-Aug-19 22:33N 34°41' E 135°11'0 0.0
2014-Aug-19 21:33N 34°41' E 135°11'0 0.0
2014-Aug-19 20:33N 34°41' E 135°11'0 0.0
2014-Aug-19 19:33N 34°41' E 135°11'0 0.0
2014-Aug-19 18:33N 34°41' E 135°11'0 0.0
2014-Aug-19 17:27N 34°41' E 135°11'0 0.0
2014-Aug-19 16:33N 34°41' E 135°11'0 0.0
2014-Aug-19 15:15N 34°41' E 135°11'0 0.0
2014-Aug-19 14:21N 34°41' E 135°11'0 0.0
2014-Aug-19 13:33N 34°41' E 135°11'0 0.0
2014-Aug-19 12:33N 34°41' E 135°11'8 8.1
2014-Aug-19 11:33N 34°35' E 135°05'3 3.1
2014-Aug-19 10:33N 34°37' E 135°07'5 5.1
2014-Aug-19 09:32N 34°41' E 135°11'5 5.1
2014-Aug-19 08:33N 34°37' E 135°07'5 5.0
2014-Aug-19 07:33N 34°41' E 135°11'0 0.0
2014-Aug-19 06:33N 34°41' E 135°11'0 0.0
2014-Aug-19 05:33N 34°41' E 135°11'2 2.2
2014-Aug-19 04:33N 34°39' E 135°11'1 1.5
2014-Aug-19 03:33N 34°37' E 135°12'4 3.4
2014-Aug-19 02:31N 34°41' E 135°11'0 0.0
2014-Aug-19 01:25N 34°41' E 135°11'0 0.0
2014-Aug-19 00:25N 34°41' E 135°11'0 0.0
2014-Aug-18 23:31N 34°41' E 135°11'0 0.0
2014-Aug-18 22:07N 34°41' E 135°11'0 0.0
2014-Aug-18 21:31N 34°41' E 135°11'0 0.0
2014-Aug-18 20:31N 34°41' E 135°11'0 0.0
2014-Aug-18 19:31N 34°41' E 135°11'0 0.0
2014-Aug-18 18:31N 34°41' E 135°11'0 0.0
2014-Aug-18 17:31N 34°41' E 135°11'0 0.0
2014-Aug-18 16:25N 34°41' E 135°11'0 0.0
2014-Aug-18 15:31N 34°41' E 135°11'0 0.0
2014-Aug-18 14:31N 34°41' E 135°11'0 0.0
2014-Aug-18 13:31N 34°41' E 135°11'0 0.0
2014-Aug-18 12:23N 34°41' E 135°11'6 7.0
2014-Aug-18 11:33N 34°36' E 135°07'1 1.2
2014-Aug-18 10:34N 34°37' E 135°06'6 5.1
2014-Aug-18 09:27N 34°41' E 135°11'0 0.0
2014-Aug-18 08:31N 34°41' E 135°11'5 5.5
2014-Aug-18 07:33N 34°36' E 135°08'5 4.9
2014-Aug-18 06:29N 34°41' E 135°11'0 0.0
2014-Aug-18 05:29N 34°41' E 135°11'2 2.2
2014-Aug-18 04:33N 34°39' E 135°11'3 2.5
2014-Aug-18 03:33N 34°37' E 135°13'4 3.9
2014-Aug-18 02:31N 34°41' E 135°11'0 0.0
2014-Aug-18 01:31N 34°41' E 135°11'0 0.0
2014-Aug-18 00:25N 34°41' E 135°11'0 0.0
2014-Aug-17 18:31N 34°41' E 135°11'0 0.0
2014-Aug-17 17:31N 34°41' E 135°11'0 0.0
2014-Aug-17 16:31N 34°41' E 135°11'0 0.0
2014-Aug-17 15:31N 34°41' E 135°11'0 0.0
2014-Aug-17 14:31N 34°41' E 135°11'0 0.0
2014-Aug-17 13:19N 34°41' E 135°11'0 0.0
2014-Aug-17 12:31N 34°41' E 135°11'7 6.8
2014-Aug-17 11:33N 34°36' E 135°06'1 1.1
2014-Aug-17 10:33N 34°37' E 135°07'6 5.0
2014-Aug-17 09:28N 34°41' E 135°11'2 2.0
2014-Aug-17 08:34N 34°39' E 135°11'3 3.1
2014-Aug-17 07:34N 34°36' E 135°13'5 4.3
2014-Aug-17 06:27N 34°41' E 135°11'0 0.0
2014-Aug-17 05:33N 34°41' E 135°11'2 2.2
2014-Aug-17 04:33N 34°39' E 135°11'3 2.5
2014-Aug-17 03:33N 34°37' E 135°13'4 3.8
2014-Aug-17 02:28N 34°41' E 135°11'0 0.0
2014-Aug-17 01:28N 34°41' E 135°11'0 0.0
2014-Aug-17 00:28N 34°41' E 135°11'0 0.0
2014-Aug-16 23:28N 34°41' E 135°11'0 0.0
2014-Aug-16 22:22N 34°41' E 135°11'0 0.0
2014-Aug-16 21:28N 34°41' E 135°11'0 0.0
2014-Aug-16 20:28N 34°41' E 135°11'0 0.0
2014-Aug-16 19:28N 34°41' E 135°11'0 0.0
2014-Aug-16 18:28N 34°41' E 135°11'0 0.0
2014-Aug-16 17:28N 34°41' E 135°11'0 0.0
2014-Aug-16 16:28N 34°41' E 135°11'0 0.0
2014-Aug-16 15:28N 34°41' E 135°11'0 0.0
2014-Aug-16 14:28N 34°41' E 135°11'0 0.0
2014-Aug-16 13:28N 34°41' E 135°11'0 0.0
2014-Aug-16 12:28N 34°41' E 135°11'6 7.1
2014-Aug-16 11:33N 34°36' E 135°07'1 1.5
2014-Aug-16 10:33N 34°37' E 135°07'5 5.2
2014-Aug-16 09:31N 34°41' E 135°11'2 2.2
2014-Aug-16 08:33N 34°39' E 135°11'3 2.9
2014-Aug-16 07:33N 34°36' E 135°13'5 4.5
2014-Aug-16 06:30N 34°41' E 135°11'0 0.0
2014-Aug-16 05:30N 34°41' E 135°11'2 1.7
2014-Aug-16 04:33N 34°39' E 135°11'5 4.6
2014-Aug-16 03:33N 34°35' E 135°10'6 5.7
2014-Aug-16 02:29N 34°41' E 135°11'0 0.0
2014-Aug-16 01:29N 34°41' E 135°11'0 0.0
2014-Aug-16 00:29N 34°41' E 135°11'0 0.0
2014-Aug-15 23:29N 34°41' E 135°11'0 0.0
2014-Aug-15 22:29N 34°41' E 135°11'0 0.0
2014-Aug-15 21:29N 34°41' E 135°11'0 0.0
2014-Aug-15 20:29N 34°41' E 135°11'0 0.0
2014-Aug-15 19:29N 34°41' E 135°11'0 0.0
2014-Aug-15 18:29N 34°41' E 135°11'0 0.0
2014-Aug-15 17:23N 34°41' E 135°11'0 0.0
2014-Aug-15 16:29N 34°41' E 135°11'0 0.0
2014-Aug-15 15:29N 34°41' E 135°11'0 0.0
2014-Aug-15 14:29N 34°41' E 135°11'0 0.0
2014-Aug-15 13:29N 34°41' E 135°11'0 0.0
2014-Aug-15 12:29N 34°41' E 135°11'7 7.2
2014-Aug-15 11:33N 34°35' E 135°07'1 1.3
2014-Aug-15 10:33N 34°37' E 135°07'6 4.8
2014-Aug-15 09:23N 34°41' E 135°11'0 0.0
2014-Aug-15 08:33N 34°41' E 135°11'5 4.8
2014-Aug-15 07:33N 34°37' E 135°08'5 4.7
2014-Aug-15 06:33N 34°41' E 135°11'0 0.0
2014-Aug-15 05:33N 34°41' E 135°11'1 1.3
2014-Aug-15 04:33N 34°40' E 135°11'4 3.8
2014-Aug-15 03:33N 34°37' E 135°09'5 4.6
2014-Aug-15 02:30N 34°41' E 135°11'0 0.0
2014-Aug-15 01:24N 34°41' E 135°11'0 0.0
2014-Aug-15 00:30N 34°41' E 135°11'0 0.0
2014-Aug-14 23:30N 34°41' E 135°11'0 0.0
2014-Aug-14 22:30N 34°41' E 135°11'0 0.0
2014-Aug-14 21:30N 34°41' E 135°11'0 0.0
2014-Aug-14 20:30N 34°41' E 135°11'0 0.0
2014-Aug-14 19:24N 34°41' E 135°11'0 0.0
2014-Aug-14 18:30N 34°41' E 135°11'0 0.0
2014-Aug-14 17:30N 34°41' E 135°11'0 0.0
2014-Aug-14 16:30N 34°41' E 135°11'0 0.0
2014-Aug-14 15:30N 34°41' E 135°11'0 0.0
2014-Aug-14 14:30N 34°41' E 135°11'0 0.0
2014-Aug-14 13:30N 34°41' E 135°11'0 0.0
2014-Aug-14 12:26N 34°41' E 135°11'7 7.9
2014-Aug-14 11:33N 34°35' E 135°06'2 1.5
2014-Aug-14 10:33N 34°37' E 135°07'6 4.9
2014-Aug-14 09:25N 34°41' E 135°11'5 5.9
2014-Aug-14 08:33N 34°37' E 135°07'5 5.1
2014-Aug-14 07:33N 34°41' E 135°11'0 0.0
2014-Aug-14 06:33N 34°41' E 135°11'0 0.0
2014-Aug-14 05:33N 34°41' E 135°11'2 2.1
2014-Aug-14 04:33N 34°39' E 135°11'3 2.5
2014-Aug-14 03:33N 34°37' E 135°14'4 3.9
2014-Aug-14 02:32N 34°41' E 135°11'0 0.0
2014-Aug-14 01:26N 34°41' E 135°11'0 0.0
2014-Aug-14 00:32N 34°41' E 135°11'0 0.0
2014-Aug-13 23:32N 34°41' E 135°11'0 0.0
2014-Aug-13 22:32N 34°41' E 135°11'0 0.0
2014-Aug-13 21:32N 34°41' E 135°11'0 0.0
2014-Aug-13 20:26N 34°41' E 135°11'0 0.0
2014-Aug-13 19:32N 34°41' E 135°11'0 0.0
2014-Aug-13 18:20N 34°41' E 135°11'0 0.0
2014-Aug-13 17:26N 34°41' E 135°11'0 0.0
2014-Aug-13 16:32N 34°41' E 135°11'0 0.0
2014-Aug-13 15:32N 34°41' E 135°11'0 0.0
2014-Aug-13 14:32N 34°41' E 135°11'0 0.0
2014-Aug-13 13:26N 34°41' E 135°11'0 0.0
2014-Aug-13 12:32N 34°41' E 135°11'7 7.6
2014-Aug-13 11:33N 34°35' E 135°06'2 1.8
2014-Aug-13 10:33N 34°37' E 135°06'6 5.5
2014-Aug-13 09:32N 34°41' E 135°11'5 5.4
2014-Aug-13 08:33N 34°37' E 135°07'5 5.3
2014-Aug-13 07:33N 34°41' E 135°11'0 0.0
2014-Aug-13 06:33N 34°41' E 135°11'0 0.0
2014-Aug-13 05:33N 34°41' E 135°11'2 1.8
2014-Aug-13 04:34N 34°39' E 135°11'3 2.6
2014-Aug-13 03:33N 34°37' E 135°14'  
Track history (hours):
 
Tides and Currents Weather Stations Pressure Air Temp Water Temp Dewpoint Dewpoint Depression Visibility Wind Speed Wind Dir Waves Ship Positions

Luminous Kobe-2

Last reported at 2014-Aug-23 03:33 UTC. Time now 2014-Aug-23 05:36 UTC.
Position N 34°38' E 135°13'.

Length 105 m; draft 4.5 m.

Type: Passenger vessel. MMSI: 431000469.

Date/timePositionNaut miles runAvg speedWind from/ knotsBaromVisibWave heightAir tempDewpointWater temp
2014-Aug-23 03:33N 34°38' E 135°13'3 3.4
2014-Aug-23 02:33N 34°41' E 135°11'0 0.0
2014-Aug-23 01:27N 34°41' E 135°11'0 0.0
2014-Aug-23 00:27N 34°41' E 135°11'0 0.0
2014-Aug-22 23:27N 34°41' E 135°11'0 0.0
2014-Aug-22 22:33N 34°41' E 135°11'0 0.0
2014-Aug-22 21:33N 34°41' E 135°11'0 0.0
2014-Aug-22 20:33N 34°41' E 135°11'0 0.0
2014-Aug-22 19:33N 34°41' E 135°11'0 0.0
2014-Aug-22 18:33N 34°41' E 135°11'0 0.0
2014-Aug-22 17:33N 34°41' E 135°11'0 0.0
2014-Aug-22 16:33N 34°41' E 135°11'0 0.0
2014-Aug-22 15:33N 34°41' E 135°11'0 0.0
2014-Aug-22 14:33N 34°41' E 135°11'0 0.0
2014-Aug-22 13:27N 34°41' E 135°11'0 0.0
2014-Aug-22 12:33N 34°41' E 135°11'7 7.3
2014-Aug-22 11:33N 34°35' E 135°06'2 1.7
2014-Aug-22 10:33N 34°37' E 135°06'6 5.3
2014-Aug-22 09:29N 34°41' E 135°11'5 5.8
2014-Aug-22 08:33N 34°37' E 135°07'5 5.0
2014-Aug-22 07:30N 34°41' E 135°11'0 0.0
2014-Aug-22 06:30N 34°41' E 135°11'0 0.0
2014-Aug-22 05:30N 34°41' E 135°11'2 2.4
2014-Aug-22 04:33N 34°39' E 135°11'1 1.3
2014-Aug-22 03:33N 34°37' E 135°12'3 3.4
2014-Aug-22 02:33N 34°41' E 135°11'0 0.0
2014-Aug-22 01:33N 34°41' E 135°11'0 0.0
2014-Aug-22 00:33N 34°41' E 135°11'0 0.0
2014-Aug-21 23:27N 34°41' E 135°11'0 0.0
2014-Aug-21 22:33N 34°41' E 135°11'0 0.0
2014-Aug-21 21:33N 34°41' E 135°11'0 0.0
2014-Aug-21 20:27N 34°41' E 135°11'0 0.0
2014-Aug-21 19:33N 34°41' E 135°11'0 0.0
2014-Aug-21 18:33N 34°41' E 135°11'0 0.0
2014-Aug-21 17:33N 34°41' E 135°11'0 0.0
2014-Aug-21 16:21N 34°41' E 135°11'0 0.0
2014-Aug-21 15:33N 34°41' E 135°11'0 0.0
2014-Aug-21 14:33N 34°41' E 135°11'0 0.0
2014-Aug-21 13:33N 34°41' E 135°11'0 0.0
2014-Aug-21 12:33N 34°41' E 135°11'8 7.8
2014-Aug-21 11:33N 34°35' E 135°05'2 2.5
2014-Aug-21 10:34N 34°37' E 135°07'5 4.5
2014-Aug-21 09:22N 34°41' E 135°11'0 0.0
2014-Aug-21 08:33N 34°41' E 135°11'5 5.2
2014-Aug-21 07:33N 34°36' E 135°08'5 4.8
2014-Aug-21 06:29N 34°41' E 135°11'0 0.0
2014-Aug-21 05:29N 34°41' E 135°11'2 2.2
2014-Aug-21 04:33N 34°39' E 135°11'2 2.2
2014-Aug-21 03:33N 34°37' E 135°13'4 3.6
2014-Aug-21 02:30N 34°41' E 135°11'0 0.0
2014-Aug-21 01:30N 34°41' E 135°11'0 0.0
2014-Aug-21 00:30N 34°41' E 135°11'0 0.0
2014-Aug-20 23:30N 34°41' E 135°11'0 0.0
2014-Aug-20 22:30N 34°41' E 135°11'0 0.0
2014-Aug-20 21:30N 34°41' E 135°11'0 0.0
2014-Aug-20 20:24N 34°41' E 135°11'0 0.0
2014-Aug-20 19:30N 34°41' E 135°11'0 0.0
2014-Aug-20 18:30N 34°41' E 135°11'0 0.0
2014-Aug-20 17:30N 34°41' E 135°11'0 0.0
2014-Aug-20 16:30N 34°41' E 135°11'0 0.0
2014-Aug-20 15:30N 34°41' E 135°11'0 0.0
2014-Aug-20 14:30N 34°41' E 135°11'0 0.0
2014-Aug-20 13:30N 34°41' E 135°11'0 0.0
2014-Aug-20 12:24N 34°41' E 135°11'6 7.1
2014-Aug-20 11:33N 34°36' E 135°07'1 1.1
2014-Aug-20 10:33N 34°37' E 135°07'5 5.1
2014-Aug-20 09:31N 34°41' E 135°11'6 5.8
2014-Aug-20 08:33N 34°37' E 135°07'6 4.8
2014-Aug-20 07:25N 34°41' E 135°11'0 0.0
2014-Aug-20 06:31N 34°41' E 135°11'0 0.0
2014-Aug-20 05:31N 34°41' E 135°11'2 2.3
2014-Aug-20 04:33N 34°39' E 135°11'2 2.4
2014-Aug-20 03:33N 34°37' E 135°13'4 4.2
2014-Aug-20 02:33N 34°41' E 135°11'0 0.0
2014-Aug-20 01:27N 34°41' E 135°11'0 0.0
2014-Aug-20 00:33N 34°41' E 135°11'0 0.0
2014-Aug-19 23:21N 34°41' E 135°11'0 0.0
2014-Aug-19 22:33N 34°41' E 135°11'0 0.0
2014-Aug-19 21:33N 34°41' E 135°11'0 0.0
2014-Aug-19 20:33N 34°41' E 135°11'0 0.0
2014-Aug-19 19:33N 34°41' E 135°11'0 0.0
2014-Aug-19 18:33N 34°41' E 135°11'0 0.0
2014-Aug-19 17:27N 34°41' E 135°11'0 0.0
2014-Aug-19 16:33N 34°41' E 135°11'0 0.0
2014-Aug-19 15:15N 34°41' E 135°11'0 0.0
2014-Aug-19 14:21N 34°41' E 135°11'0 0.0
2014-Aug-19 13:33N 34°41' E 135°11'0 0.0
2014-Aug-19 12:33N 34°41' E 135°11'8 8.1
2014-Aug-19 11:33N 34°35' E 135°05'3 3.1
2014-Aug-19 10:33N 34°37' E 135°07'5 5.1
2014-Aug-19 09:32N 34°41' E 135°11'5 5.1
2014-Aug-19 08:33N 34°37' E 135°07'5 5.0
2014-Aug-19 07:33N 34°41' E 135°11'0 0.0
2014-Aug-19 06:33N 34°41' E 135°11'0 0.0
2014-Aug-19 05:33N 34°41' E 135°11'2 2.2
2014-Aug-19 04:33N 34°39' E 135°11'1 1.5
2014-Aug-19 03:33N 34°37' E 135°12'4 3.4
2014-Aug-19 02:31N 34°41' E 135°11'0 0.0
2014-Aug-19 01:25N 34°41' E 135°11'0 0.0
2014-Aug-19 00:25N 34°41' E 135°11'0 0.0
2014-Aug-18 23:31N 34°41' E 135°11'0 0.0
2014-Aug-18 22:07N 34°41' E 135°11'0 0.0
2014-Aug-18 21:31N 34°41' E 135°11'0 0.0
2014-Aug-18 20:31N 34°41' E 135°11'0 0.0
2014-Aug-18 19:31N 34°41' E 135°11'0 0.0
2014-Aug-18 18:31N 34°41' E 135°11'0 0.0
2014-Aug-18 17:31N 34°41' E 135°11'0 0.0
2014-Aug-18 16:25N 34°41' E 135°11'0 0.0
2014-Aug-18 15:31N 34°41' E 135°11'0 0.0
2014-Aug-18 14:31N 34°41' E 135°11'0 0.0
2014-Aug-18 13:31N 34°41' E 135°11'0 0.0
2014-Aug-18 12:23N 34°41' E 135°11'6 7.0
2014-Aug-18 11:33N 34°36' E 135°07'1 1.2
2014-Aug-18 10:34N 34°37' E 135°06'6 5.1
2014-Aug-18 09:27N 34°41' E 135°11'0 0.0
2014-Aug-18 08:31N 34°41' E 135°11'5 5.5
2014-Aug-18 07:33N 34°36' E 135°08'5 4.9
2014-Aug-18 06:29N 34°41' E 135°11'0 0.0
2014-Aug-18 05:29N 34°41' E 135°11'2 2.2
2014-Aug-18 04:33N 34°39' E 135°11'3 2.5
2014-Aug-18 03:33N 34°37' E 135°13'4 3.9
2014-Aug-18 02:31N 34°41' E 135°11'0 0.0
2014-Aug-18 01:31N 34°41' E 135°11'0 0.0
2014-Aug-18 00:25N 34°41' E 135°11'0 0.0
2014-Aug-17 18:31N 34°41' E 135°11'0 0.0
2014-Aug-17 17:31N 34°41' E 135°11'0 0.0
2014-Aug-17 16:31N 34°41' E 135°11'0 0.0
2014-Aug-17 15:31N 34°41' E 135°11'0 0.0
2014-Aug-17 14:31N 34°41' E 135°11'0 0.0
2014-Aug-17 13:19N 34°41' E 135°11'0 0.0
2014-Aug-17 12:31N 34°41' E 135°11'7 6.8
2014-Aug-17 11:33N 34°36' E 135°06'1 1.1
2014-Aug-17 10:33N 34°37' E 135°07'6 5.0
2014-Aug-17 09:28N 34°41' E 135°11'2 2.0
2014-Aug-17 08:34N 34°39' E 135°11'3 3.1
2014-Aug-17 07:34N 34°36' E 135°13'5 4.3
2014-Aug-17 06:27N 34°41' E 135°11'0 0.0
2014-Aug-17 05:33N 34°41' E 135°11'2 2.2
2014-Aug-17 04:33N 34°39' E 135°11'3 2.5
2014-Aug-17 03:33N 34°37' E 135°13'4 3.8
2014-Aug-17 02:28N 34°41' E 135°11'0 0.0
2014-Aug-17 01:28N 34°41' E 135°11'0 0.0
2014-Aug-17 00:28N 34°41' E 135°11'0 0.0
2014-Aug-16 23:28N 34°41' E 135°11'0 0.0
2014-Aug-16 22:22N 34°41' E 135°11'0 0.0
2014-Aug-16 21:28N 34°41' E 135°11'0 0.0
2014-Aug-16 20:28N 34°41' E 135°11'0 0.0
2014-Aug-16 19:28N 34°41' E 135°11'0 0.0
2014-Aug-16 18:28N 34°41' E 135°11'0 0.0
2014-Aug-16 17:28N 34°41' E 135°11'0 0.0
2014-Aug-16 16:28N 34°41' E 135°11'0 0.0
2014-Aug-16 15:28N 34°41' E 135°11'0 0.0
2014-Aug-16 14:28N 34°41' E 135°11'0 0.0
2014-Aug-16 13:28N 34°41' E 135°11'0 0.0
2014-Aug-16 12:28N 34°41' E 135°11'6 7.1
2014-Aug-16 11:33N 34°36' E 135°07'1 1.5
2014-Aug-16 10:33N 34°37' E 135°07'5 5.2
2014-Aug-16 09:31N 34°41' E 135°11'2 2.2
2014-Aug-16 08:33N 34°39' E 135°11'3 2.9
2014-Aug-16 07:33N 34°36' E 135°13'5 4.5
2014-Aug-16 06:30N 34°41' E 135°11'0 0.0
2014-Aug-16 05:30N 34°41' E 135°11'2 1.7
2014-Aug-16 04:33N 34°39' E 135°11'5 4.6
2014-Aug-16 03:33N 34°35' E 135°10'6 5.7
2014-Aug-16 02:29N 34°41' E 135°11'0 0.0
2014-Aug-16 01:29N 34°41' E 135°11'0 0.0
2014-Aug-16 00:29N 34°41' E 135°11'0 0.0
2014-Aug-15 23:29N 34°41' E 135°11'0 0.0
2014-Aug-15 22:29N 34°41' E 135°11'0 0.0
2014-Aug-15 21:29N 34°41' E 135°11'0 0.0
2014-Aug-15 20:29N 34°41' E 135°11'0 0.0
2014-Aug-15 19:29N 34°41' E 135°11'0 0.0
2014-Aug-15 18:29N 34°41' E 135°11'0 0.0
2014-Aug-15 17:23N 34°41' E 135°11'0 0.0
2014-Aug-15 16:29N 34°41' E 135°11'0 0.0
2014-Aug-15 15:29N 34°41' E 135°11'0 0.0
2014-Aug-15 14:29N 34°41' E 135°11'0 0.0
2014-Aug-15 13:29N 34°41' E 135°11'0 0.0
2014-Aug-15 12:29N 34°41' E 135°11'7 7.2
2014-Aug-15 11:33N 34°35' E 135°07'1 1.3
2014-Aug-15 10:33N 34°37' E 135°07'6 4.8
2014-Aug-15 09:23N 34°41' E 135°11'0 0.0
2014-Aug-15 08:33N 34°41' E 135°11'5 4.8
2014-Aug-15 07:33N 34°37' E 135°08'5 4.7
2014-Aug-15 06:33N 34°41' E 135°11'0 0.0
2014-Aug-15 05:33N 34°41' E 135°11'1 1.3
2014-Aug-15 04:33N 34°40' E 135°11'4 3.8
2014-Aug-15 03:33N 34°37' E 135°09'5 4.6
2014-Aug-15 02:30N 34°41' E 135°11'0 0.0
2014-Aug-15 01:24N 34°41' E 135°11'0 0.0
2014-Aug-15 00:30N 34°41' E 135°11'0 0.0
2014-Aug-14 23:30N 34°41' E 135°11'0 0.0
2014-Aug-14 22:30N 34°41' E 135°11'0 0.0
2014-Aug-14 21:30N 34°41' E 135°11'0 0.0
2014-Aug-14 20:30N 34°41' E 135°11'0 0.0
2014-Aug-14 19:24N 34°41' E 135°11'0 0.0
2014-Aug-14 18:30N 34°41' E 135°11'0 0.0
2014-Aug-14 17:30N 34°41' E 135°11'0 0.0
2014-Aug-14 16:30N 34°41' E 135°11'0 0.0
2014-Aug-14 15:30N 34°41' E 135°11'0 0.0
2014-Aug-14 14:30N 34°41' E 135°11'0 0.0
2014-Aug-14 13:30N 34°41' E 135°11'0 0.0
2014-Aug-14 12:26N 34°41' E 135°11'7 7.9
2014-Aug-14 11:33N 34°35' E 135°06'2 1.5
2014-Aug-14 10:33N 34°37' E 135°07'6 4.9
2014-Aug-14 09:25N 34°41' E 135°11'5 5.9
2014-Aug-14 08:33N 34°37' E 135°07'5 5.1
2014-Aug-14 07:33N 34°41' E 135°11'0 0.0
2014-Aug-14 06:33N 34°41' E 135°11'0 0.0
2014-Aug-14 05:33N 34°41' E 135°11'2 2.1
2014-Aug-14 04:33N 34°39' E 135°11'3 2.5
2014-Aug-14 03:33N 34°37' E 135°14'4 3.9
2014-Aug-14 02:32N 34°41' E 135°11'0 0.0
2014-Aug-14 01:26N 34°41' E 135°11'0 0.0
2014-Aug-14 00:32N 34°41' E 135°11'0 0.0
2014-Aug-13 23:32N 34°41' E 135°11'0 0.0
2014-Aug-13 22:32N 34°41' E 135°11'0 0.0
2014-Aug-13 21:32N 34°41' E 135°11'0 0.0
2014-Aug-13 20:26N 34°41' E 135°11'0 0.0
2014-Aug-13 19:32N 34°41' E 135°11'0 0.0
2014-Aug-13 18:20N 34°41' E 135°11'0 0.0
2014-Aug-13 17:26N 34°41' E 135°11'0 0.0
2014-Aug-13 16:32N 34°41' E 135°11'0 0.0
2014-Aug-13 15:32N 34°41' E 135°11'0 0.0
2014-Aug-13 14:32N 34°41' E 135°11'0 0.0
2014-Aug-13 13:26N 34°41' E 135°11'0 0.0
2014-Aug-13 12:32N 34°41' E 135°11'7 7.6
2014-Aug-13 11:33N 34°35' E 135°06'2 1.8
2014-Aug-13 10:33N 34°37' E 135°06'6 5.5
2014-Aug-13 09:32N 34°41' E 135°11'5 5.4
2014-Aug-13 08:33N 34°37' E 135°07'5 5.3
2014-Aug-13 07:33N 34°41' E 135°11'0 0.0
2014-Aug-13 06:33N 34°41' E 135°11'0 0.0
2014-Aug-13 05:33N 34°41' E 135°11'2 1.8
2014-Aug-13 04:34N 34°39' E 135°11'3 2.6
2014-Aug-13 03:33N 34°37' E 135°14'  

Dump ship's entire track history